Latest Weather Observations for Gayndah

IDQ60801

Issued at 6:22 am EST Friday 22 October 2021 (issued every 10 minutes, with the page automatically refreshed every 10 minutes)

About weather observations | Map of weather stations | Latest weather observations for QLD | Other Formats
Station Details ID: 039066 Name: GAYNDAH AIRPORT Lat: -25.62 Lon: 151.62 Height: 110.9 m
Data from the previous 72 hours. | See also: Recent months at Gayndah
Date/Time
EST
Temp
°C
App
Temp
°C
Dew
Point
°C
Rel
Hum
%
Delta-T
°C
Wind Press
QNH
hPa
Press
MSL
hPa
Rain since
9am
mm
Dir  Spd
km/h
Gust
km/h
Spd
kts
Gust
kts
22/06:00am 21.5 25.0 19.6 89 1.2 CALM 0 2 0 1 1014.6 1014.1 0.0
22/05:30am 21.2 24.4 19.7 91 1.0 ENE 2 4 1 2 1014.1 1013.7 0.0
22/05:00am 21.5 24.6 19.4 88 1.3 ENE 2 4 1 2 1014.0 1013.6 0.0
22/04:30am 21.5 24.0 19.1 86 1.5 E 4 6 2 3 1013.6 1013.2 0.0
22/04:00am 21.6 24.2 19.2 86 1.5 E 4 6 2 3 1013.3 1012.9 0.0
22/03:30am 21.5 24.0 19.1 86 1.5 ESE 4 6 2 3 1013.0 1012.6 0.0
22/03:00am 21.7 23.7 19.1 85 1.7 ENE 7 9 4 5 1012.8 1012.4 0.0
22/02:30am 21.7 24.1 18.9 84 1.8 E 4 6 2 3 1012.7 1012.3 0.0
22/02:00am 21.7 24.9 18.9 84 1.8 CALM 0 4 0 2 1013.0 1012.6 0.0
22/01:30am 21.6 23.4 18.8 84 1.8 ENE 7 11 4 6 1013.2 1012.8 0.0
22/01:00am 21.3 22.7 18.7 85 1.6 E 9 13 5 7 1013.3 1012.9 0.0
22/12:30am 21.2 22.1 18.4 84 1.8 E 11 15 6 8 1013.4 1013.0 0.0
22/12:00am 21.2 22.4 18.2 83 1.9 E 9 13 5 7 1013.6 1013.2 0.0
 
Date/Time
EST
Temp
°C
App
Temp
°C
Dew
Point
°C
Rel
Hum
%
Delta-T
°C
Wind Press
QNH
hPa
Press
MSL
hPa
Rain since
9am
mm
Dir  Spd
km/h
Gust
km/h
Spd
kts
Gust
kts
21/11:30pm 21.6 22.3 18.0 80 2.2 ENE 11 15 6 8 1013.8 1013.4 0.0
21/11:00pm 21.5 22.2 17.9 80 2.2 NE 11 17 6 9 1013.9 1013.5 0.0
21/10:30pm 21.4 21.9 17.4 78 2.5 ENE 11 17 6 9 1014.0 1013.6 0.0
21/10:00pm 21.9 21.1 17.1 74 3.0 NE 17 24 9 13 1013.7 1013.3 0.0
21/09:30pm 22.3 20.4 16.6 70 3.5 NE 22 32 12 17 1013.2 1012.8 0.0
21/09:20pm 22.6 21.0 16.4 68 3.8 E 20 30 11 16 1013.2 1012.8 0.0
21/09:06pm 22.6 23.1 16.6 69 3.7 ESE 9 17 5 9 1014.5 1014.0 0.0
21/09:00pm 22.6 23.0 16.4 68 3.8 NNE 9 19 5 10 1013.9 1013.5 0.0
21/08:30pm 22.7 21.8 16.9 70 3.6 NE 17 22 9 12 1012.9 1012.5 0.0
21/08:00pm 23.0 22.6 16.1 65 4.2 NE 13 20 7 11 1012.9 1012.5 0.0
21/07:30pm 23.5 22.8 16.3 64 4.4 NE 15 20 8 11 1012.6 1012.2 0.0
21/07:00pm 24.0 22.5 16.3 62 4.7 NE 19 26 10 14 1012.1 1011.7 0.0
21/06:30pm 24.7 23.0 16.2 59 5.2 NNE 20 30 11 16 1011.3 1010.9 0.0
21/06:00pm 25.7 23.5 16.0 55 6.0 NNE 22 35 12 19 1010.7 1010.2 0.0
21/05:30pm 26.6 23.1 15.6 50 6.7 NE 28 37 15 20 1010.0 1009.5 0.0
21/05:00pm 27.7 25.4 15.7 48 7.4 NE 22 35 12 19 1009.4 1008.9 0.0
21/04:30pm 28.9 26.4 13.6 39 9.2 NE 19 30 10 16 1008.7 1008.2 0.0
21/04:00pm 30.0 26.7 12.9 35 10.2 NE 22 30 12 16 1008.4 1007.9 0.0
21/03:30pm 29.9 28.2 12.3 33 10.4 NE 13 20 7 11 1008.5 1008.0 0.0
21/03:00pm 30.9 28.8 12.3 32 11.0 NE 15 26 8 14 1008.8 1008.3 0.0
21/02:30pm 30.4 29.4 12.3 33 10.7 NE 9 17 5 9 1009.3 1008.8 0.0
21/02:00pm 29.2 27.9 12.6 36 9.8 NNE 11 22 6 12 1009.8 1009.3 0.0
21/01:30pm 29.7 28.7 13.5 37 9.7 NE 11 20 6 11 1010.3 1009.8 0.0
21/01:00pm 28.8 28.1 13.1 38 9.3 NE 9 19 5 10 1010.8 1010.3 0.0
21/12:30pm 29.0 28.7 13.2 37 9.4 NE 7 15 4 8 1011.4 1011.0 0.0
21/12:00pm 27.8 27.4 13.0 40 8.7 ENE 7 19 4 10 1012.0 1011.6 0.0
21/11:30am 28.1 27.2 13.6 41 8.6 ENE 11 24 6 13 1012.4 1012.0 0.0
21/11:00am 27.8 27.1 13.3 40 8.6 NE 9 19 5 10 1013.0 1012.6 0.0
21/10:30am 25.8 24.4 12.3 43 7.8 NNE 11 19 6 10 1013.4 1013.0 0.0
21/10:00am 25.9 24.9 12.4 43 7.8 ENE 9 17 5 9 1013.7 1013.3 0.0
21/09:30am 24.7 24.0 13.3 49 6.7 NE 9 19 5 10 1014.1 1013.7 0.0
21/09:00am 24.4 24.0 14.2 53 6.0 NE 9 20 5 11 1014.1 1013.7 0.0
21/08:30am 22.9 23.5 14.2 58 5.1 E 4 9 2 5 1014.4 1013.9 0.0
21/08:00am 20.8 21.3 14.0 65 4.0 N 4 7 2 4 1014.4 1013.9 0.0
21/07:30am 20.2 20.7 13.9 67 3.6 ENE 4 7 2 4 1013.9 1013.5 0.0
21/07:00am 17.8 18.7 12.9 73 2.8 CALM 0 0 0 0 1013.9 1013.5 0.0
21/06:30am 16.2 17.2 13.3 83 1.6 CALM 0 0 0 0 1013.5 1013.1 0.0
21/06:00am 14.9 15.9 13.3 90 0.9 CALM 0 0 0 0 1013.3 1012.9 0.0
21/05:30am 13.5 13.8 12.1 91 0.8 W 2 6 1 3 1012.9 1012.5 0.0
21/05:00am 13.0 13.4 11.4 90 0.9 CALM 0 0 0 0 1012.5 1012.1 0.0
21/04:30am 13.7 14.3 11.8 88 1.0 CALM 0 0 0 0 1012.8 1012.4 0.0
21/04:00am 13.9 14.5 11.9 88 1.1 CALM 0 0 0 0 1012.7 1012.3 0.0
21/03:30am 14.0 14.2 12.0 88 1.1 E 2 4 1 2 1012.9 1012.5 0.0
21/03:00am 14.6 14.1 11.9 84 1.5 WSW 6 7 3 4 1013.1 1012.7 0.0
21/02:30am 14.7 15.0 12.2 85 1.4 SE 2 6 1 3 1013.2 1012.8 0.0
21/02:00am 15.4 15.0 12.3 82 1.7 SSW 6 9 3 5 1013.7 1013.3 0.0
21/01:30am 15.0 14.5 12.0 82 1.6 WSW 6 7 3 4 1013.1 1012.7 0.0
21/01:00am 16.3 16.6 12.1 76 2.3 NE 2 6 1 3 1012.7 1012.3 0.0
21/12:30am 15.7 15.2 11.9 78 2.1 ENE 6 9 3 5 1012.5 1012.1 0.0
21/12:00am 15.7 15.3 12.5 81 1.8 ENE 6 7 3 4 1012.5 1012.1 0.0
 
Date/Time
EST
Temp
°C
App
Temp
°C
Dew
Point
°C
Rel
Hum
%
Delta-T
°C
Wind Press
QNH
hPa
Press
MSL
hPa
Rain since
9am
mm
Dir  Spd
km/h
Gust
km/h
Spd
kts
Gust
kts
20/11:30pm 16.5 16.8 13.4 82 1.7 NNE 4 9 2 5 1013.0 1012.6 0.0
20/11:00pm 16.6 17.9 14.1 85 1.4 CALM 0 0 0 0 1012.9 1012.5 0.0
20/10:30pm 17.1 18.4 14.0 82 1.8 CALM 0 4 0 2 1013.0 1012.6 0.0
20/10:00pm 17.4 18.7 14.1 81 1.9 CALM 0 4 0 2 1013.4 1013.0 0.0
20/09:30pm 17.8 17.7 13.9 78 2.2 SE 7 9 4 5 1013.4 1013.0 0.0
20/09:00pm 18.4 18.9 13.9 75 2.6 SSE 4 6 2 3 1013.7 1013.3 0.0
20/08:30pm 19.0 20.2 13.8 72 3.0 CALM 0 0 0 0 1013.5 1013.1 0.0
20/08:00pm 20.4 20.4 14.1 67 3.7 NNE 7 11 4 6 1013.3 1012.9 0.0
20/07:30pm 20.8 19.0 13.3 62 4.3 ENE 15 22 8 12 1013.1 1012.7 0.0
20/07:00pm 21.0 19.4 12.7 59 4.7 ENE 13 17 7 9 1012.7 1012.3 0.0
20/06:30pm 21.8 20.2 12.9 57 5.1 NNE 13 19 7 10 1012.5 1012.1 0.0
20/06:00pm 22.6 22.8 13.1 55 5.5 SE 4 9 2 5 1012.9 1012.5 0.0
20/05:30pm 22.9 20.4 13.4 55 5.5 E 19 26 10 14 1011.9 1011.5 0.0
20/05:05pm 22.7 20.1 12.0 50 6.1 NNE 17 30 9 16 1011.5 1011.1 0.0
20/05:00pm 22.6 19.0 11.7 50 6.2 NNE 22 37 12 20 1011.4 1011.0 0.0
20/04:40pm 23.4 16.8 10.1 43 7.3 NNE 35 48 19 26 1011.0 1010.6 0.0
20/04:30pm 24.0 18.5 10.7 43 7.4 NE 30 43 16 23 1010.9 1010.5 0.0
20/04:18pm 24.4 20.0 13.0 49 6.6 NNE 28 44 15 24 1011.0 1010.6 0.0
20/04:08pm 26.3 21.6 10.5 37 8.9 N 26 37 14 20 1011.0 1010.6 0.0
20/04:00pm 27.4 23.8 11.8 38 9.0 N 22 37 12 20 1010.8 1010.3 0.0
20/03:30pm 28.4 25.4 10.6 33 10.1 ENE 17 30 9 16 1009.9 1009.4 0.0
20/03:00pm 29.7 27.3 7.0 24 12.3 N 9 15 5 8 1009.9 1009.4 0.0
20/02:30pm 30.0 27.6 7.2 24 12.4 W 9 17 5 9 1010.0 1009.5 0.0
20/02:00pm 31.2 28.6 7.6 23 13.0 NNE 11 22 6 12 1010.2 1009.7 0.0
20/01:30pm 29.8 26.5 6.5 23 12.5 ENE 13 24 7 13 1010.5 1010.0 0.0
20/01:00pm 30.4 28.0 8.7 26 12.1 NE 11 22 6 12 1011.1 1010.7 0.0
20/12:30pm 30.3 27.7 9.2 27 11.8 NNE 13 20 7 11 1011.7 1011.3 0.0
20/12:00pm 29.5 28.0 12.0 34 10.2 ENE 11 20 6 11 1012.5 1012.1 0.0
20/11:30am 28.5 27.7 15.1 44 8.2 N 13 24 7 13 1013.2 1012.8 0.0
20/11:00am 27.6 28.1 15.6 48 7.4 NNE 7 13 4 7 1013.6 1013.2 0.0
20/10:30am 26.7 26.8 15.4 50 6.9 NE 9 17 5 9 1014.0 1013.6 0.0
20/10:00am 25.8 26.5 16.1 55 6.0 NNE 7 13 4 7 1014.7 1014.2 0.0
20/09:30am 25.2 25.0 15.8 56 5.7 NE 11 17 6 9 1014.9 1014.4 0.0
20/09:00am 24.5 24.9 16.2 60 5.1 NE 9 19 5 10 1015.2 1014.7 0.0
20/08:30am 22.8 23.7 16.1 66 4.1 NNE 6 11 3 6 1015.2 1014.7 0.0
20/08:00am 21.7 22.6 16.2 71 3.3 NNE 6 9 3 5 1015.2 1014.7 0.0
20/07:30am 20.2 22.1 16.6 80 2.2 S 2 6 1 3 1015.2 1014.7 0.0
20/07:00am 18.8 20.0 16.9 89 1.2 NE 6 7 3 4 1015.1 1014.6 0.0
20/06:30am 16.9 18.6 16.3 96 0.4 N 2 6 1 3 1014.8 1014.3 0.0
20/06:00am 15.7 17.5 15.4 98 0.2 CALM 0 0 0 0 1014.4 1013.9 0.0
20/05:30am 15.1 16.7 14.9 99 0.1 CALM 0 0 0 0 1014.1 1013.7 0.0
20/05:00am 15.4 17.1 15.2 99 0.1 CALM 0 0 0 0 1013.7 1013.3 0.0
20/04:30am 15.4 17.1 15.1 98 0.2 CALM 0 0 0 0 1013.4 1013.0 0.0
20/04:00am 15.2 16.4 14.9 98 0.2 N 2 4 1 2 1013.2 1012.8 0.0
20/03:30am 15.7 17.4 15.2 97 0.3 CALM 0 0 0 0 1013.0 1012.6 0.0
20/03:00am 16.2 18.2 15.9 98 0.2 CALM 0 0 0 0 1012.9 1012.5 0.0
20/02:30am 16.6 18.6 16.1 97 0.3 CALM 0 0 0 0 1013.1 1012.7 0.0
20/02:00am 16.8 18.9 16.2 96 0.4 CALM 0 0 0 0 1013.3 1012.9 0.0
20/01:30am 16.8 18.7 15.7 93 0.6 CALM 0 4 0 2 1013.8 1013.4 0.0
20/01:00am 17.8 19.5 16.3 91 0.9 WNW 2 6 1 3 1014.1 1013.7 0.0
20/12:30am 17.3 18.5 15.8 91 0.9 SSE 4 6 2 3 1014.0 1013.6 0.0
20/12:00am 17.9 18.9 16.4 91 0.9 SE 6 9 3 5 1014.5 1014.0 0.0
 
Date/Time
EST
Temp
°C
App
Temp
°C
Dew
Point
°C
Rel
Hum
%
Delta-T
°C
Wind Press
QNH
hPa
Press
MSL
hPa
Rain since
9am
mm
Dir  Spd
km/h
Gust
km/h
Spd
kts
Gust
kts
19/11:30pm 18.3 19.3 16.8 91 0.9 ENE 7 9 4 5 1014.8 1014.3 0.0
19/11:00pm 18.4 20.3 16.7 90 1.0 N 2 6 1 3 1015.7 1015.2 0.0
19/10:30pm 18.2 19.4 16.0 87 1.3 ENE 4 4 2 2 1015.0 1014.5 0.0
19/10:00pm 18.4 19.7 16.2 87 1.3 ESE 4 6 2 3 1015.1 1014.6 0.0
19/09:30pm 18.6 19.7 15.5 82 1.8 SE 4 6 2 3 1015.1 1014.6 0.0
19/09:00pm 18.9 19.9 15.4 80 2.1 E 4 7 2 4 1014.9 1014.4 0.0
19/08:30pm 19.0 19.5 14.9 77 2.4 ESE 6 9 3 5 1014.6 1014.1 0.0
19/08:00pm 20.1 20.3 14.2 69 3.4 NNE 6 9 3 5 1014.1 1013.7 0.0
19/07:30pm 20.6 20.3 14.5 68 3.6 NNE 9 13 5 7 1013.8 1013.4 0.0
19/07:00pm 21.0 20.5 13.9 64 4.1 ENE 9 13 5 7 1013.7 1013.3 0.0
19/06:30pm 21.4 21.1 15.5 69 3.5 ENE 11 15 6 8 1012.9 1012.5 0.0
19/06:00pm 22.3 21.2 15.4 65 4.1 E 15 20 8 11 1012.4 1012.0 0.0
19/05:30pm 25.7 24.1 8.7 34 9.2 N 7 19 4 10 1011.6 1011.2 0.0
19/05:22pm 25.7 22.7 7.8 32 9.6 E 13 24 7 13 1012.0 1011.6 0.0
19/05:00pm 24.7 22.7 11.6 44 7.5 S 13 22 7 12 1012.4 1012.0 0.0
19/04:43pm 24.4 24.2 13.6 51 6.3 S 7 9 4 5 1011.8 1011.4 0.0
19/04:30pm 24.2 23.6 13.4 51 6.3 SSE 9 11 5 6 1011.3 1010.9 0.0
19/04:00pm 25.2 24.2 11.0 41 8.0 SE 7 11 4 6 1010.7 1010.2 0.0
19/03:30pm 26.0 22.8 9.8 36 9.0 SE 17 26 9 14 1011.3 1010.9 0.0
19/03:19pm 26.6 22.5 8.6 32 9.8 SSE 20 28 11 15 1011.3 1010.9 0.0
19/03:00pm 28.4 25.6 10.1 32 10.3 SSW 15 30 8 16 1011.6 1011.2 0.0
19/02:42pm 29.8 28.4 8.8 27 11.7 WSW 6 15 3 8 1011.3 1010.9 0.0
19/02:30pm 30.6 29.1 8.3 25 12.4 SW 6 11 3 6 1011.3 1010.9 0.0
19/02:00pm 30.5 28.3 7.7 24 12.5 NNW 9 19 5 10 1011.7 1011.3 0.0
19/01:30pm 30.5 28.9 8.8 26 12.1 NNW 7 15 4 8 1012.2 1011.8 0.0
19/01:00pm 29.9 28.5 9.4 28 11.5 SSW 7 13 4 7 1012.8 1012.4 0.0
19/12:30pm 28.8 29.4 13.1 38 9.3 SSE 2 6 1 3 1013.5 1013.1 0.0
19/12:00pm 28.4 28.5 13.9 41 8.7 WSW 6 9 3 5 1014.3 1013.8 0.0
19/11:30am 26.6 27.1 15.6 50 6.7 NW 7 13 4 7 1014.9 1014.4 0.0
19/11:00am 26.3 27.3 16.8 56 5.9 W 7 17 4 9 1015.3 1014.8 0.0
19/10:30am 25.2 25.9 17.1 60 5.0 WNW 9 15 5 8 1015.9 1015.4 0.0
19/10:00am 24.4 24.5 17.4 65 4.4 W 13 19 7 10 1016.1 1015.6 0.0
19/09:30am 23.4 24.0 16.7 66 4.1 W 9 17 5 9 1016.3 1015.8 0.0
19/09:00am 22.4 23.1 16.0 67 3.9 SW 7 13 4 7 1016.3 1015.8 7.2
19/08:30am 20.4 21.4 15.4 73 3.0 WSW 4 7 2 4 1016.5 1016.0 7.2
19/08:00am 18.9 20.2 15.2 79 2.2 WSW 2 6 1 3 1016.7 1016.2 7.2
19/07:30am 17.5 18.7 15.0 85 1.5 W 2 6 1 3 1016.6 1016.1 7.2
19/07:00am 16.0 17.5 14.7 92 0.7 CALM 0 2 0 1 1016.4 1015.9 7.2
19/06:30am 14.9 16.3 14.4 97 0.3 CALM 0 0 0 0 1015.9 1015.4 7.2

Other formats

Comma delimited format used in spreadsheet applications
http://www.bom.gov.au/fwo/IDQ60801/IDQ60801.95543.axf

JavaScript Object Notation format (JSON) in row-major order
http://www.bom.gov.au/fwo/IDQ60801/IDQ60801.95543.json

Data quality

Most of these data are generated automatically and are frequently updated. Quality checks on data are not normally performed. It is possible for incorrect values to appear. Refer to information at About Latest Weather Observations and please check the disclaimer before using these data.